Terminal Aerodrome Forecast
Issued by NWS Jackson, MS

Home | Current Version | Previous Version | Text Only | Print | Product List | Glossary On
Versions: 1 2 3 4 5 6 7 8 9 10 11 12 13 14 15 16 17 18 19 20 21
000
FTUS44 KJAN 221700
TAFGWO
TAF
KGWO 221720Z 2218/2318 05005KT P6SM SCT040 BKN250
     FM230600 00000KT 4SM BR SCT100 BKN250
     FM231000 00000KT 2SM BR SCT250
     FM231400 VRB03KT P6SM SCT250=

USA.gov is the U.S. government's official web portal to all federal, state and local government web resources and services.